This is the latest recevied weather packets stored in our database for station/object SQ9PDE-13. If no packets are shown the sender has not sent any weather packets the latest 10 day(s).
| Time | Temp. | Humidity | Pressure | Rain* | Wind** | Luminosity | Snow |
|---|---|---|---|---|---|---|---|
| 1777472117 | 7.78° C | 42% | 1027.6 hPa | - | - | - | - |
| 1777471816 | 7.78° C | 40% | 1027.6 hPa | - | - | - | - |
| 1777471515 | 7.78° C | 40% | 1027.5 hPa | - | - | - | - |
| 1777471215 | 8.89° C | 42% | 1027.4 hPa | - | - | - | - |
| 1777470914 | 8.33° C | 41% | 1027.5 hPa | - | - | - | - |
| 1777470614 | 7.78° C | 40% | 1027.4 hPa | - | - | - | - |
| 1777470313 | 8.89° C | 42% | 1027.3 hPa | - | - | - | - |
| 1777470013 | 7.78° C | 43% | 1027.4 hPa | - | - | - | - |
| 1777469712 | 7.78° C | 42% | 1027.4 hPa | - | - | - | - |
| 1777469412 | 7.78° C | 43% | 1027.4 hPa | - | - | - | - |
| 1777469111 | 8.89° C | 41% | 1027.2 hPa | - | - | - | - |
| 1777468811 | 8.89° C | 41% | 1026.9 hPa | - | - | - | - |
| 1777468512 | 8.89° C | 39% | 1027.1 hPa | - | - | - | - |
| 1777468210 | 8.33° C | 39% | 1027.2 hPa | - | - | - | - |
| 1777467912 | 8.33° C | 38% | 1027.1 hPa | - | - | - | - |
| 1777467609 | 10° C | 39% | 1026.6 hPa | - | - | - | - |
| 1777467311 | 8.89° C | 39% | 1027.1 hPa | - | - | - | - |
| 1777467009 | 8.89° C | 39% | 1027.1 hPa | - | - | - | - |
| 1777466707 | 8.33° C | 40% | 1027.1 hPa | - | - | - | - |
| 1777466409 | 8.33° C | 39% | 1027 hPa | - | - | - | - |
| 1777466106 | 10° C | 38% | 1026.7 hPa | - | - | - | - |
| 1777465805 | 8.33° C | 39% | 1027.1 hPa | - | - | - | - |
| 1777465505 | 8.33° C | 39% | 1027 hPa | - | - | - | - |
| 1777465204 | 8.89° C | 39% | 1026.9 hPa | - | - | - | - |
| 1777464904 | 7.78° C | 38% | 1027.1 hPa | - | - | - | - |
* Rain since midnight (hover to see other rain measurements)
** Current wind speed in m/s (hover to see current wind gust speed)